Time;durP1;ratioP1;P1;durP2;ratioP2;P2;SDS_P1;SDS_P2;PMS_P1;PMS_P2;Temp;Humidity;BMP_temperature;BMP_pressure;BME280_temperature;BME280_humidity;BME280_pressure;Samples;Min_cycle;Max_cycle;Signal;HPM_P1;HPM_P2
2023/08/17 00:00:00;;;;;;;7.30;5.85;;;;;;;;;;4991564;28;20050;-83
2023/08/17 00:02:25;;;;;;;8.23;6.20;;;;;;;;;;4992595;28;20031;-82
2023/08/17 00:04:50;;;;;;;8.95;5.95;;;;;;;;;;4993981;28;20038;-82
2023/08/17 00:07:16;;;;;;;8.50;6.20;;;;;;;;;;4994696;28;20030;-81
2023/08/17 00:09:42;;;;;;;8.30;6.10;;;;;;;;;;4997812;28;20026;-82
2023/08/17 00:12:07;;;;;;;8.90;5.68;;;;;;;;;;4990466;28;20062;-82
2023/08/17 00:14:33;;;;;;;8.80;6.03;;;;;;;;;;5001581;28;20027;-81
2023/08/17 00:16:58;;;;;;;9.40;6.28;;;;;;;;;;4998521;28;20395;-81
2023/08/17 00:19:24;;;;;;;9.95;6.20;;;;;;;;;;4997010;28;20038;-81
2023/08/17 00:21:51;;;;;;;6.75;5.80;;;;;;;;;;4995673;28;20124;-82
2023/08/17 00:24:16;;;;;;;9.20;6.57;;;;;;;;;;5000702;28;20038;-82
2023/08/17 00:26:42;;;;;;;9.25;5.80;;;;;;;;;;5000987;28;20034;-82
2023/08/17 00:29:07;;;;;;;11.38;6.20;;;;;;;;;;5000142;28;20105;-82
2023/08/17 00:31:33;;;;;;;7.60;6.38;;;;;;;;;;5001060;28;20030;-82
2023/08/17 00:33:58;;;;;;;9.75;6.32;;;;;;;;;;4999858;28;20554;-82
2023/08/17 00:36:24;;;;;;;9.07;6.47;;;;;;;;;;4993019;28;20042;-81
2023/08/17 00:38:49;;;;;;;11.63;6.53;;;;;;;;;;4996366;28;20042;-82
2023/08/17 00:41:15;;;;;;;9.40;6.45;;;;;;;;;;4999830;28;20027;-80
2023/08/17 00:43:40;;;;;;;6.90;6.20;;;;;;;;;;4998356;28;20061;-81
2023/08/17 00:46:06;;;;;;;8.63;6.18;;;;;;;;;;4994212;28;20034;-81
2023/08/17 00:48:34;;;;;;;7.70;6.00;;;;;;;;;;4989501;28;20038;-83
2023/08/17 00:51:01;;;;;;;8.48;6.00;;;;;;;;;;4999888;28;20037;-81
2023/08/17 00:53:29;;;;;;;10.18;6.22;;;;;;;;;;4995337;28;20077;-82
2023/08/17 00:55:54;;;;;;;6.97;5.50;;;;;;;;;;4995808;28;20038;-82
2023/08/17 00:58:21;;;;;;;10.10;6.10;;;;;;;;;;4991755;28;20031;-80
2023/08/17 01:00:47;;;;;;;10.80;5.50;;;;;;;;;;4989262;28;20027;-80
2023/08/17 01:03:13;;;;;;;9.32;6.10;;;;;;;;;;4997820;28;20569;-81
2023/08/17 01:05:38;;;;;;;9.48;6.20;;;;;;;;;;4996007;28;20031;-81
2023/08/17 01:08:04;;;;;;;10.50;6.10;;;;;;;;;;4992644;28;20031;-80
2023/08/17 01:10:47;;;;;;;7.15;6.25;;;;;;;;;;4988781;28;20055;-79
2023/08/17 01:13:20;;;;;;;8.48;6.75;;;;;;;;;;4979970;28;20069;-82
2023/08/17 01:15:49;;;;;;;;;;;;;;;;;;4981905;28;20050;-80
2023/08/17 01:18:31;;;;;;;9.65;7.10;;;;;;;;;;4997567;28;19921;-82
2023/08/17 01:20:57;;;;;;;8.38;6.95;;;;;;;;;;4974298;28;20035;-79
2023/08/17 01:23:23;;;;;;;7.85;6.53;;;;;;;;;;5000083;28;20042;-81
2023/08/17 01:25:49;;;;;;;10.32;6.72;;;;;;;;;;5000063;28;20055;-82
2023/08/17 01:28:15;;;;;;;10.00;6.75;;;;;;;;;;4997476;28;20090;-79
2023/08/17 01:30:58;;;;;;;7.40;6.50;;;;;;;;;;4984657;28;20445;-82
2023/08/17 01:33:31;;;;;;;8.50;7.10;;;;;;;;;;4997262;28;20034;-81
2023/08/17 01:36:18;;;;;;;8.88;6.88;;;;;;;;;;5002066;28;20035;-81
2023/08/17 01:38:44;;;;;;;10.65;6.60;;;;;;;;;;4996178;28;20073;-82
2023/08/17 01:41:15;;;;;;;11.63;6.55;;;;;;;;;;5001312;28;20200;-81
2023/08/17 01:43:45;;;;;;;8.38;6.35;;;;;;;;;;5007298;28;20097;-82
2023/08/17 01:46:15;;;;;;;10.35;6.75;;;;;;;;;;4990753;28;20038;-84
2023/08/17 01:48:42;;;;;;;10.07;6.47;;;;;;;;;;4995215;28;20109;-83
2023/08/17 01:51:11;;;;;;;8.93;6.78;;;;;;;;;;4998868;28;20058;-83
2023/08/17 01:53:37;;;;;;;8.98;6.70;;;;;;;;;;5000196;28;20030;-82
2023/08/17 01:56:03;;;;;;;7.80;6.57;;;;;;;;;;4993299;28;20081;-81
2023/08/17 01:58:28;;;;;;;10.98;6.80;;;;;;;;;;4997700;28;20027;-82
2023/08/17 02:00:54;;;;;;;11.23;6.60;;;;;;;;;;4996124;28;20034;-81
2023/08/17 02:03:19;;;;;;;10.20;6.53;;;;;;;;;;4998885;28;20077;-82
2023/08/17 02:05:45;;;;;;;8.05;6.10;;;;;;;;;;4990844;28;20054;-81
2023/08/17 02:08:13;;;;;;;8.95;6.47;;;;;;;;;;4990004;28;20031;-80
2023/08/17 02:10:38;;;;;;;8.05;6.53;;;;;;;;;;4988359;28;20037;-82
2023/08/17 02:13:04;;;;;;;7.55;6.72;;;;;;;;;;5000334;28;20045;-81
2023/08/17 02:15:30;;;;;;;7.30;6.43;;;;;;;;;;4999836;28;20030;-81
2023/08/17 02:17:57;;;;;;;10.95;6.20;;;;;;;;;;4991574;28;20117;-83
2023/08/17 02:20:22;;;;;;;7.30;6.43;;;;;;;;;;4990653;28;20037;-82
2023/08/17 02:22:48;;;;;;;10.18;6.32;;;;;;;;;;4996991;28;20034;-81
2023/08/17 02:25:13;;;;;;;10.18;6.45;;;;;;;;;;4996572;28;20034;-79
2023/08/17 02:27:39;;;;;;;12.15;7.20;;;;;;;;;;4994450;28;20598;-79
2023/08/17 02:30:05;;;;;;;9.05;6.60;;;;;;;;;;4993873;28;20066;-80
2023/08/17 02:32:30;;;;;;;8.20;6.50;;;;;;;;;;4997634;28;20065;-81
2023/08/17 02:34:56;;;;;;;12.20;6.55;;;;;;;;;;5001681;28;20061;-80
2023/08/17 02:37:21;;;;;;;9.43;6.70;;;;;;;;;;4998130;28;20035;-79
2023/08/17 02:39:47;;;;;;;7.53;6.30;;;;;;;;;;5002729;28;20034;-80
2023/08/17 02:42:12;;;;;;;8.25;6.70;;;;;;;;;;5000056;28;20038;-81
2023/08/17 02:44:38;;;;;;;7.45;6.57;;;;;;;;;;5001529;28;20034;-83
2023/08/17 02:47:03;;;;;;;7.18;6.22;;;;;;;;;;5002081;28;20505;-82
2023/08/17 02:49:29;;;;;;;7.13;6.40;;;;;;;;;;5003452;28;20042;-81
2023/08/17 02:51:55;;;;;;;8.80;6.30;;;;;;;;;;5001765;28;20066;-78
2023/08/17 02:54:21;;;;;;;8.40;6.55;;;;;;;;;;5000483;28;20039;-79
2023/08/17 02:56:46;;;;;;;9.00;6.80;;;;;;;;;;4988328;28;20054;-80
2023/08/17 02:59:12;;;;;;;9.98;6.68;;;;;;;;;;4996123;28;20065;-79
2023/08/17 03:01:37;;;;;;;9.23;6.72;;;;;;;;;;5001012;28;20409;-78
2023/08/17 03:04:04;;;;;;;8.13;6.20;;;;;;;;;;5000854;28;20054;-79
2023/08/17 03:06:29;;;;;;;9.32;6.22;;;;;;;;;;4991433;28;20065;-79
2023/08/17 03:08:55;;;;;;;8.45;6.40;;;;;;;;;;4985088;28;20054;-79
2023/08/17 03:11:21;;;;;;;7.85;6.30;;;;;;;;;;5001602;28;20045;-80
2023/08/17 03:13:48;;;;;;;9.07;6.30;;;;;;;;;;4996620;28;20038;-80
2023/08/17 03:16:15;;;;;;;8.85;6.40;;;;;;;;;;4991028;28;20026;-80
2023/08/17 03:18:41;;;;;;;8.57;6.45;;;;;;;;;;4988419;28;20039;-80
2023/08/17 03:21:06;;;;;;;6.88;6.07;;;;;;;;;;4995662;28;20035;-81
2023/08/17 03:23:32;;;;;;;7.65;6.65;;;;;;;;;;5001397;28;20057;-80
2023/08/17 03:25:58;;;;;;;9.38;6.82;;;;;;;;;;4997092;28;20031;-80
2023/08/17 03:28:25;;;;;;;8.30;7.22;;;;;;;;;;5002719;28;20049;-81
2023/08/17 03:30:55;;;;;;;9.52;7.32;;;;;;;;;;4997958;28;20038;-79
2023/08/17 03:33:21;;;;;;;12.40;6.80;;;;;;;;;;5003032;28;20046;-80
2023/08/17 03:35:46;;;;;;;9.93;7.35;;;;;;;;;;5002279;28;20493;-82
2023/08/17 03:38:13;;;;;;;12.45;6.72;;;;;;;;;;4992819;28;20089;-82
2023/08/17 03:40:39;;;;;;;9.65;7.10;;;;;;;;;;4998563;28;20121;-81
2023/08/17 03:43:04;;;;;;;8.93;7.30;;;;;;;;;;4995095;28;20068;-82
2023/08/17 03:45:30;;;;;;;9.70;7.13;;;;;;;;;;4995793;28;20086;-82
2023/08/17 03:47:56;;;;;;;9.80;7.32;;;;;;;;;;5004273;28;20031;-79
2023/08/17 03:50:22;;;;;;;7.97;6.85;;;;;;;;;;4998490;28;20030;-80
2023/08/17 03:52:47;;;;;;;10.23;7.28;;;;;;;;;;4995068;28;20061;-82
2023/08/17 03:55:13;;;;;;;10.27;6.75;;;;;;;;;;4993994;28;20030;-80
2023/08/17 03:57:38;;;;;;;8.50;6.70;;;;;;;;;;4996611;28;20096;-80
2023/08/17 04:00:06;;;;;;;7.55;6.38;;;;;;;;;;5000649;28;20026;-81
2023/08/17 04:02:39;;;;;;;9.23;6.40;;;;;;;;;;4997032;28;20047;-80
2023/08/17 04:05:05;;;;;;;11.35;6.85;;;;;;;;;;4990486;28;20030;-80
2023/08/17 04:07:30;;;;;;;7.55;6.70;;;;;;;;;;4987034;28;20034;-80
2023/08/17 04:09:56;;;;;;;7.53;6.75;;;;;;;;;;5001710;28;20105;-80
2023/08/17 04:12:22;;;;;;;7.53;5.95;;;;;;;;;;4998052;28;20034;-80
2023/08/17 04:14:47;;;;;;;8.52;6.50;;;;;;;;;;4991232;28;20472;-80
2023/08/17 04:17:13;;;;;;;10.15;6.40;;;;;;;;;;4986551;28;20057;-82
2023/08/17 04:19:38;;;;;;;8.45;6.28;;;;;;;;;;4991453;28;20119;-81
2023/08/17 04:22:04;;;;;;;8.52;6.70;;;;;;;;;;4997865;28;20153;-79
2023/08/17 04:24:30;;;;;;;8.32;6.47;;;;;;;;;;4993903;28;20049;-81
2023/08/17 04:26:56;;;;;;;8.68;6.18;;;;;;;;;;5003396;28;20035;-80
2023/08/17 04:29:21;;;;;;;10.82;6.55;;;;;;;;;;5010327;28;20093;-80
2023/08/17 04:31:47;;;;;;;10.23;6.53;;;;;;;;;;5009481;28;20109;-83
2023/08/17 04:34:12;;;;;;;9.93;6.63;;;;;;;;;;5007853;28;20031;-81
2023/08/17 04:36:38;;;;;;;11.13;7.20;;;;;;;;;;5004407;28;20030;-81
2023/08/17 04:39:04;;;;;;;9.95;6.60;;;;;;;;;;5009888;28;20027;-82
2023/08/17 04:41:31;;;;;;;9.60;7.47;;;;;;;;;;5006227;28;20077;-82
2023/08/17 04:43:56;;;;;;;9.32;6.88;;;;;;;;;;5009996;28;20035;-83
2023/08/17 04:46:22;;;;;;;8.00;6.82;;;;;;;;;;5002109;28;20027;-82
2023/08/17 04:48:49;;;;;;;8.75;6.68;;;;;;;;;;4997959;28;20026;-82
2023/08/17 04:51:15;;;;;;;8.20;6.80;;;;;;;;;;4999359;28;20049;-81
2023/08/17 04:53:41;;;;;;;10.57;6.55;;;;;;;;;;4982840;28;20030;-81
2023/08/17 04:56:06;;;;;;;7.47;6.38;;;;;;;;;;4994535;28;20038;-82
2023/08/17 04:58:32;;;;;;;9.27;6.35;;;;;;;;;;5000647;28;20069;-81
2023/08/17 05:00:59;;;;;;;9.38;6.50;;;;;;;;;;4999484;28;20034;-82
2023/08/17 05:03:24;;;;;;;7.95;6.20;;;;;;;;;;4991289;28;20690;-81
2023/08/17 05:05:54;;;;;;;9.63;6.38;;;;;;;;;;4986609;28;20030;-80
2023/08/17 05:08:21;;;;;;;10.65;6.32;;;;;;;;;;4996622;28;20032;-80
2023/08/17 05:10:49;;;;;;;11.02;6.32;;;;;;;;;;5010199;28;20124;-81
2023/08/17 05:13:14;;;;;;;9.15;6.63;;;;;;;;;;4975530;28;20042;-82
2023/08/17 05:15:40;;;;;;;9.77;6.40;;;;;;;;;;4986765;28;20043;-81
2023/08/17 05:18:08;;;;;;;6.93;6.25;;;;;;;;;;4984389;28;20034;-81
2023/08/17 05:20:33;;;;;;;10.93;6.00;;;;;;;;;;4999010;28;20026;-81
2023/08/17 05:22:59;;;;;;;8.48;6.38;;;;;;;;;;4993616;28;20184;-81
2023/08/17 05:25:26;;;;;;;9.43;6.40;;;;;;;;;;4988409;28;20034;-81
2023/08/17 05:27:52;;;;;;;7.88;6.53;;;;;;;;;;4988093;28;20026;-81
2023/08/17 05:30:17;;;;;;;8.02;6.20;;;;;;;;;;4998786;28;20038;-82
2023/08/17 05:32:43;;;;;;;6.75;6.05;;;;;;;;;;5000112;28;20066;-82
2023/08/17 05:35:08;;;;;;;7.57;5.82;;;;;;;;;;4996408;28;20054;-82
2023/08/17 05:37:34;;;;;;;10.15;5.95;;;;;;;;;;4998916;28;20049;-81
2023/08/17 05:40:00;;;;;;;7.25;5.32;;;;;;;;;;4997510;28;20154;-81
2023/08/17 05:42:25;;;;;;;8.57;6.50;;;;;;;;;;5001636;28;20034;-82
2023/08/17 05:44:50;;;;;;;17.70;12.38;;;;;;;;;;4993940;28;20089;-82
2023/08/17 05:47:18;;;;;;;11.57;7.63;;;;;;;;;;4999127;28;20470;-82
2023/08/17 05:49:44;;;;;;;13.45;7.40;;;;;;;;;;4981108;28;20130;-83
2023/08/17 05:52:10;;;;;;;10.50;6.80;;;;;;;;;;4999170;28;20069;-80
2023/08/17 05:54:36;;;;;;;10.48;6.90;;;;;;;;;;4996264;28;20038;-81
2023/08/17 05:57:01;;;;;;;9.02;6.95;;;;;;;;;;4998233;28;20101;-83
2023/08/17 05:59:27;;;;;;;7.40;6.70;;;;;;;;;;4999855;28;20030;-82
2023/08/17 06:01:52;;;;;;;9.80;7.00;;;;;;;;;;5000540;28;20037;-80
2023/08/17 06:04:18;;;;;;;12.30;7.20;;;;;;;;;;4991195;28;20105;-81
2023/08/17 06:06:43;;;;;;;12.13;6.63;;;;;;;;;;4997996;28;20038;-81
2023/08/17 06:09:09;;;;;;;8.43;6.35;;;;;;;;;;4995953;28;20041;-81
2023/08/17 06:11:34;;;;;;;9.52;6.50;;;;;;;;;;4995447;28;20042;-81
2023/08/17 06:14:00;;;;;;;7.18;6.00;;;;;;;;;;4988864;28;20030;-82
2023/08/17 06:16:25;;;;;;;7.60;6.45;;;;;;;;;;4978725;28;20743;-81
2023/08/17 06:18:51;;;;;;;10.73;6.55;;;;;;;;;;4997944;28;20030;-83
2023/08/17 06:21:17;;;;;;;8.57;6.35;;;;;;;;;;4994188;28;20113;-80
2023/08/17 06:23:42;;;;;;;8.18;6.40;;;;;;;;;;5006876;28;20056;-80
2023/08/17 06:26:08;;;;;;;9.20;6.70;;;;;;;;;;4987149;28;20046;-80
2023/08/17 06:28:33;;;;;;;13.18;6.75;;;;;;;;;;4996418;28;20026;-82
2023/08/17 06:30:59;;;;;;;7.25;6.28;;;;;;;;;;4996993;28;20030;-81
2023/08/17 06:33:25;;;;;;;7.07;6.32;;;;;;;;;;4995950;28;20150;-81
2023/08/17 06:35:50;;;;;;;10.48;6.57;;;;;;;;;;4990828;28;20041;-81
2023/08/17 06:38:16;;;;;;;8.80;6.70;;;;;;;;;;4995416;28;20045;-82
2023/08/17 06:40:42;;;;;;;10.38;7.03;;;;;;;;;;5002913;28;20594;-83
2023/08/17 06:43:07;;;;;;;11.80;6.53;;;;;;;;;;4993611;28;20033;-81
2023/08/17 06:45:33;;;;;;;7.63;6.50;;;;;;;;;;4991219;28;20549;-79
2023/08/17 06:47:59;;;;;;;8.52;6.18;;;;;;;;;;4991178;28;20023;-80
2023/08/17 06:50:26;;;;;;;7.53;6.50;;;;;;;;;;4992741;28;20367;-81
2023/08/17 06:52:52;;;;;;;9.45;6.25;;;;;;;;;;4992324;28;20046;-80
2023/08/17 06:55:17;;;;;;;8.57;6.30;;;;;;;;;;4993962;28;20053;-79
2023/08/17 06:57:43;;;;;;;12.77;6.80;;;;;;;;;;4993056;28;20393;-80
2023/08/17 07:00:11;;;;;;;7.35;6.53;;;;;;;;;;4995803;28;20038;-81
2023/08/17 07:02:36;;;;;;;6.88;6.18;;;;;;;;;;4986792;28;20034;-82
2023/08/17 07:05:03;;;;;;;8.63;6.80;;;;;;;;;;4989893;28;20118;-79
2023/08/17 07:07:29;;;;;;;9.52;6.18;;;;;;;;;;4991876;28;20034;-80
2023/08/17 07:09:55;;;;;;;8.23;6.18;;;;;;;;;;4993872;28;20034;-81
2023/08/17 07:12:20;;;;;;;6.95;5.72;;;;;;;;;;4993090;28;20049;-79
2023/08/17 07:14:46;;;;;;;8.55;5.72;;;;;;;;;;4992366;28;20034;-80
2023/08/17 07:17:11;;;;;;;8.82;6.03;;;;;;;;;;5002626;28;20026;-81
2023/08/17 07:19:37;;;;;;;10.65;6.07;;;;;;;;;;5001677;28;20497;-81
2023/08/17 07:22:02;;;;;;;6.47;5.88;;;;;;;;;;4996568;28;20023;-81
2023/08/17 07:24:28;;;;;;;8.05;5.97;;;;;;;;;;4992064;28;20053;-80
2023/08/17 07:26:53;;;;;;;6.90;5.88;;;;;;;;;;4994982;28;20030;-81
2023/08/17 07:29:19;;;;;;;8.50;5.90;;;;;;;;;;5005946;28;20332;-81
2023/08/17 07:31:44;;;;;;;9.30;6.10;;;;;;;;;;5001517;28;20481;-81
2023/08/17 07:34:10;;;;;;;6.78;5.57;;;;;;;;;;5002052;28;20030;-81
2023/08/17 07:36:35;;;;;;;6.68;5.85;;;;;;;;;;4995300;28;20035;-79
2023/08/17 07:39:01;;;;;;;6.47;5.43;;;;;;;;;;5003580;28;20066;-79
2023/08/17 07:41:27;;;;;;;7.75;5.60;;;;;;;;;;5002082;28;20064;-79
2023/08/17 07:43:52;;;;;;;8.75;5.70;;;;;;;;;;4998310;28;20093;-79
2023/08/17 07:46:18;;;;;;;9.80;5.40;;;;;;;;;;4995696;28;20033;-82
2023/08/17 07:48:43;;;;;;;7.60;5.45;;;;;;;;;;5003207;28;21062;-80
2023/08/17 07:51:08;;;;;;;7.57;5.65;;;;;;;;;;4999398;28;20073;-79
2023/08/17 07:53:34;;;;;;;6.38;5.68;;;;;;;;;;5001980;28;20105;-82
2023/08/17 07:55:59;;;;;;;8.27;5.25;;;;;;;;;;4996195;28;20035;-80
2023/08/17 07:58:25;;;;;;;8.93;5.70;;;;;;;;;;5000438;28;20124;-80
2023/08/17 08:00:50;;;;;;;7.93;5.30;;;;;;;;;;4995226;28;20034;-80
2023/08/17 08:03:16;;;;;;;7.40;5.50;;;;;;;;;;4998333;28;20033;-81
2023/08/17 08:05:41;;;;;;;10.02;5.32;;;;;;;;;;5000291;28;20053;-80
2023/08/17 08:08:07;;;;;;;7.40;5.30;;;;;;;;;;5002569;28;20093;-80
2023/08/17 08:10:32;;;;;;;8.32;5.40;;;;;;;;;;4997305;28;20616;-81
2023/08/17 08:12:58;;;;;;;7.55;5.18;;;;;;;;;;4993982;28;20035;-80
2023/08/17 08:15:23;;;;;;;8.07;5.60;;;;;;;;;;4998347;28;20046;-81
2023/08/17 08:17:49;;;;;;;6.57;5.20;;;;;;;;;;5001999;28;20049;-80
2023/08/17 08:20:14;;;;;;;8.50;5.75;;;;;;;;;;4997059;28;20035;-80
2023/08/17 08:22:40;;;;;;;8.20;5.40;;;;;;;;;;4993183;28;20038;-80
2023/08/17 08:25:06;;;;;;;7.70;5.60;;;;;;;;;;4988512;28;20050;-80
2023/08/17 08:27:31;;;;;;;8.82;5.82;;;;;;;;;;5002356;28;20049;-81
2023/08/17 08:29:57;;;;;;;6.47;5.50;;;;;;;;;;5001087;28;20106;-81
2023/08/17 08:32:22;;;;;;;5.88;5.22;;;;;;;;;;4994725;28;20045;-82
2023/08/17 08:34:48;;;;;;;7.80;5.70;;;;;;;;;;4993454;28;20072;-83
2023/08/17 08:37:13;;;;;;;6.95;5.10;;;;;;;;;;5004009;28;20042;-82
2023/08/17 08:39:53;;;;;;;6.80;5.30;;;;;;;;;;5011697;28;20038;-81
2023/08/17 08:42:19;;;;;;;13.48;5.03;;;;;;;;;;5005799;28;20361;-82
2023/08/17 08:44:45;;;;;;;9.10;5.30;;;;;;;;;;4998829;28;20665;-81
2023/08/17 08:47:12;;;;;;;6.88;5.38;;;;;;;;;;5000728;28;20098;-80
2023/08/17 08:49:50;;;;;;;6.30;5.18;;;;;;;;;;4994793;28;20062;-83
2023/08/17 08:52:20;;;;;;;6.10;5.43;;;;;;;;;;4997213;28;20046;-86
2023/08/17 08:54:49;;;;;;;6.00;5.40;;;;;;;;;;4992441;28;20026;-85
2023/08/17 08:57:15;;;;;;;7.28;5.50;;;;;;;;;;4997356;28;20030;-85
2023/08/17 08:59:44;;;;;;;9.00;5.07;;;;;;;;;;4997906;28;20770;-84
2023/08/17 09:02:15;;;;;;;5.80;4.85;;;;;;;;;;4995715;28;20034;-84
2023/08/17 09:04:41;;;;;;;5.20;4.70;;;;;;;;;;4995256;28;20038;-84
2023/08/17 09:07:07;;;;;;;5.97;5.18;;;;;;;;;;4996904;28;20181;-82
2023/08/17 09:09:35;;;;;;;5.53;4.72;;;;;;;;;;4992670;28;20042;-84
2023/08/17 09:12:13;;;;;;;5.60;4.75;;;;;;;;;;4988115;28;20039;-79
2023/08/17 09:14:42;;;;;;;8.73;5.18;;;;;;;;;;4995644;28;20042;-84
2023/08/17 09:17:07;;;;;;;7.53;4.90;;;;;;;;;;4997918;28;20054;-84
2023/08/17 09:19:33;;;;;;;5.28;4.72;;;;;;;;;;4992210;28;20034;-85
2023/08/17 09:22:02;;;;;;;5.90;5.03;;;;;;;;;;4986729;28;20470;-85
2023/08/17 09:24:37;;;;;;;6.13;4.88;;;;;;;;;;4986112;28;20460;-84
2023/08/17 09:27:03;;;;;;;6.03;4.63;;;;;;;;;;4995045;28;20034;-83
2023/08/17 09:29:36;;;;;;;7.90;4.55;;;;;;;;;;4993351;28;20030;-83
2023/08/17 09:32:06;;;;;;;10.20;5.30;;;;;;;;;;4990355;28;20054;-80
2023/08/17 09:34:32;;;;;;;7.10;4.70;;;;;;;;;;4985649;28;20046;-81
2023/08/17 09:37:05;;;;;;;8.25;5.07;;;;;;;;;;4997158;28;20030;-82
2023/08/17 09:39:31;;;;;;;5.55;4.95;;;;;;;;;;4990649;28;20038;-83
2023/08/17 09:41:56;;;;;;;5.90;5.00;;;;;;;;;;4995144;28;20037;-84
2023/08/17 09:44:22;;;;;;;5.60;5.10;;;;;;;;;;4985713;28;20035;-82
2023/08/17 09:46:48;;;;;;;5.82;5.00;;;;;;;;;;4994385;28;20034;-84
2023/08/17 09:49:13;;;;;;;6.95;5.10;;;;;;;;;;4994920;28;20038;-85
2023/08/17 09:51:43;;;;;;;6.20;5.53;;;;;;;;;;4994624;28;20030;-84
2023/08/17 09:54:20;;;;;;;7.13;5.50;;;;;;;;;;5011337;23;20027;-88
2023/08/17 09:56:45;;;;;;;8.57;5.20;;;;;;;;;;5051229;28;20039;-84
2023/08/17 09:59:11;;;;;;;6.40;5.50;;;;;;;;;;5045189;28;20020;-84
2023/08/17 10:01:38;;;;;;;6.32;5.30;;;;;;;;;;5040274;28;20396;-84
2023/08/17 10:04:05;;;;;;;6.90;5.50;;;;;;;;;;5040363;28;20041;-86
2023/08/17 10:06:33;;;;;;;7.57;5.10;;;;;;;;;;5018852;28;20428;-85
2023/08/17 10:08:59;;;;;;;7.15;5.20;;;;;;;;;;5009754;28;20036;-85
2023/08/17 10:11:26;;;;;;;6.65;5.20;;;;;;;;;;5001371;28;20486;-85
2023/08/17 10:13:54;;;;;;;6.60;4.85;;;;;;;;;;5006212;28;20116;-85
2023/08/17 10:16:24;;;;;;;7.80;5.05;;;;;;;;;;5018753;28;20033;-85
2023/08/17 10:19:08;;;;;;;7.57;5.00;;;;;;;;;;5018526;28;20057;-85
2023/08/17 10:21:48;;;;;;;5.95;4.68;;;;;;;;;;5014200;28;20493;-84
2023/08/17 10:24:14;;;;;;;6.72;4.65;;;;;;;;;;5013100;28;20532;-85
2023/08/17 10:26:41;;;;;;;8.02;4.88;;;;;;;;;;5022774;28;20053;-85
2023/08/17 10:29:07;;;;;;;7.07;5.00;;;;;;;;;;5021118;28;20498;-84
2023/08/17 10:31:35;;;;;;;7.47;5.00;;;;;;;;;;5017463;28;20034;-84
2023/08/17 10:34:02;;;;;;;6.28;4.90;;;;;;;;;;5012671;28;20034;-86
2023/08/17 10:36:30;;;;;;;5.53;4.78;;;;;;;;;;5024189;28;20534;-84
2023/08/17 10:39:18;;;;;;;6.85;4.35;;;;;;;;;;5022390;28;20029;-83
2023/08/17 10:41:48;;;;;;;4.78;4.22;;;;;;;;;;5001126;28;20048;-85
2023/08/17 10:44:14;;;;;;;9.55;4.60;;;;;;;;;;4997673;28;20045;-85
2023/08/17 10:46:40;;;;;;;5.50;4.22;;;;;;;;;;5022715;28;20026;-84
2023/08/17 10:49:07;;;;;;;5.32;4.00;;;;;;;;;;5023697;28;20428;-84
2023/08/17 10:51:35;;;;;;;4.55;3.97;;;;;;;;;;5020747;28;20034;-84
2023/08/17 10:54:03;;;;;;;5.22;3.70;;;;;;;;;;5015889;28;20034;-85
2023/08/17 10:56:30;;;;;;;5.50;3.83;;;;;;;;;;5010377;28;20101;-84
2023/08/17 10:59:02;;;;;;;4.90;3.60;;;;;;;;;;5016389;28;20028;-84
2023/08/17 11:01:34;;;;;;;7.35;3.75;;;;;;;;;;5018561;28;20037;-83
2023/08/17 11:04:16;;;;;;;5.13;3.35;;;;;;;;;;5020750;28;20040;-88
2023/08/17 11:06:43;;;;;;;3.87;3.47;;;;;;;;;;5023871;28;20374;-85
2023/08/17 11:09:09;;;;;;;5.72;3.50;;;;;;;;;;5016578;28;20038;-84
2023/08/17 11:11:34;;;;;;;6.10;3.70;;;;;;;;;;5012303;28;20044;-84
2023/08/17 11:14:00;;;;;;;5.95;3.70;;;;;;;;;;5021983;28;20033;-84
2023/08/17 11:16:25;;;;;;;6.55;3.53;;;;;;;;;;5025243;28;20443;-84
2023/08/17 11:18:51;;;;;;;5.10;3.53;;;;;;;;;;5020658;28;20123;-85
2023/08/17 11:21:17;;;;;;;4.78;3.55;;;;;;;;;;5016335;28;20041;-84
2023/08/17 11:23:43;;;;;;;4.28;3.78;;;;;;;;;;5017736;28;20018;-85
2023/08/17 11:26:09;;;;;;;6.82;4.10;;;;;;;;;;4994779;28;20069;-85
2023/08/17 11:28:38;;;;;;;4.57;3.75;;;;;;;;;;5023320;28;20030;-84
2023/08/17 11:31:06;;;;;;;4.72;4.10;;;;;;;;;;5018841;28;20026;-84
2023/08/17 11:33:33;;;;;;;5.57;3.92;;;;;;;;;;5005072;28;20021;-84
2023/08/17 11:36:00;;;;;;;5.15;3.78;;;;;;;;;;5014691;28;20453;-84
2023/08/17 11:38:29;;;;;;;5.10;3.80;;;;;;;;;;5025151;28;20029;-84
2023/08/17 11:40:57;;;;;;;6.43;4.20;;;;;;;;;;5020220;28;20488;-84
2023/08/17 11:43:22;;;;;;;4.90;3.45;;;;;;;;;;5015734;28;20036;-84
2023/08/17 11:45:48;;;;;;;4.97;3.60;;;;;;;;;;5019502;28;20112;-84
2023/08/17 11:48:16;;;;;;;5.90;3.70;;;;;;;;;;5025807;28;20036;-85
2023/08/17 11:50:42;;;;;;;4.28;3.30;;;;;;;;;;5020571;28;20091;-84
2023/08/17 11:53:08;;;;;;;5.03;3.65;;;;;;;;;;5017338;28;20484;-84
2023/08/17 11:55:33;;;;;;;4.93;3.60;;;;;;;;;;5015792;28;20026;-85
2023/08/17 11:57:59;;;;;;;4.53;3.42;;;;;;;;;;5023943;28;20366;-84
2023/08/17 12:00:25;;;;;;;3.70;3.25;;;;;;;;;;5023978;28;20060;-85
2023/08/17 12:02:52;;;;;;;5.65;3.40;;;;;;;;;;5024771;28;20037;-85
2023/08/17 12:05:23;;;;;;;3.58;3.22;;;;;;;;;;5022631;28;20550;-85
2023/08/17 12:07:50;;;;;;;3.85;3.10;;;;;;;;;;5016777;28;20056;-84
2023/08/17 12:10:16;;;;;;;5.28;3.25;;;;;;;;;;5015311;28;20017;-84
2023/08/17 12:12:41;;;;;;;4.63;3.42;;;;;;;;;;5020326;28;20331;-85
2023/08/17 12:15:10;;;;;;;6.45;2.88;;;;;;;;;;5005854;28;20080;-85
2023/08/17 12:17:43;;;;;;;5.65;3.10;;;;;;;;;;5018415;28;20032;-86
2023/08/17 12:20:15;;;;;;;6.15;3.40;;;;;;;;;;5020460;28;20034;-85
2023/08/17 12:22:41;;;;;;;5.97;3.17;;;;;;;;;;5017326;28;20060;-84
2023/08/17 12:25:08;;;;;;;4.63;3.70;;;;;;;;;;5024828;28;20057;-84
2023/08/17 12:27:34;;;;;;;4.75;3.45;;;;;;;;;;5019492;28;20025;-83
2023/08/17 12:29:59;;;;;;;4.05;3.60;;;;;;;;;;5016906;28;20025;-83
2023/08/17 12:32:25;;;;;;;4.82;3.55;;;;;;;;;;5018233;28;20492;-84
2023/08/17 12:34:50;;;;;;;5.55;3.65;;;;;;;;;;5006099;28;20072;-84
2023/08/17 12:37:20;;;;;;;5.60;3.85;;;;;;;;;;5008129;28;20083;-84
2023/08/17 12:39:47;;;;;;;7.03;3.58;;;;;;;;;;5003500;28;20065;-85
2023/08/17 12:42:13;;;;;;;3.60;3.30;;;;;;;;;;5014254;28;20033;-84
2023/08/17 12:44:39;;;;;;;4.40;3.60;;;;;;;;;;5000916;28;20029;-84
2023/08/17 12:47:05;;;;;;;5.07;3.50;;;;;;;;;;5012400;28;20048;-84
2023/08/17 12:49:30;;;;;;;5.57;3.70;;;;;;;;;;5021662;28;20480;-85
2023/08/17 12:51:56;;;;;;;4.30;3.58;;;;;;;;;;5015477;28;20025;-83
2023/08/17 12:54:21;;;;;;;4.97;3.60;;;;;;;;;;5013653;28;20049;-85
2023/08/17 12:56:47;;;;;;;5.03;3.47;;;;;;;;;;5016291;28;20041;-83
2023/08/17 12:59:12;;;;;;;5.43;3.70;;;;;;;;;;5011490;28;20091;-85
2023/08/17 13:01:38;;;;;;;4.78;3.83;;;;;;;;;;5015822;28;20068;-84
2023/08/17 13:04:04;;;;;;;4.82;3.78;;;;;;;;;;5021270;28;20397;-85
2023/08/17 13:06:30;;;;;;;7.00;3.67;;;;;;;;;;5021389;28;20030;-85
2023/08/17 13:08:55;;;;;;;5.30;4.40;;;;;;;;;;5014592;28;20026;-84
2023/08/17 13:11:21;;;;;;;6.05;4.30;;;;;;;;;;5019680;28;20627;-84
2023/08/17 13:13:46;;;;;;;7.30;4.15;;;;;;;;;;5008713;28;20025;-84
2023/08/17 13:16:12;;;;;;;5.45;4.70;;;;;;;;;;5016901;28;20029;-86
2023/08/17 13:18:38;;;;;;;5.88;4.20;;;;;;;;;;5016850;28;20025;-86
2023/08/17 13:21:03;;;;;;;6.38;4.93;;;;;;;;;;5021889;28;20037;-85
2023/08/17 13:23:29;;;;;;;7.35;5.15;;;;;;;;;;5012296;28;20115;-85
2023/08/17 13:25:54;;;;;;;7.35;5.00;;;;;;;;;;5020335;28;20377;-84
2023/08/17 13:28:20;;;;;;;5.95;4.57;;;;;;;;;;5024809;28;20029;-87
2023/08/17 13:30:46;;;;;;;7.53;5.13;;;;;;;;;;5012935;28;20515;-87
2023/08/17 13:33:12;;;;;;;5.82;4.82;;;;;;;;;;5001381;28;20029;-87
2023/08/17 13:35:38;;;;;;;6.68;4.70;;;;;;;;;;5007925;28;20046;-87
2023/08/17 13:38:04;;;;;;;6.03;5.28;;;;;;;;;;5007452;28;20040;-87
2023/08/17 13:40:33;;;;;;;6.45;4.80;;;;;;;;;;5015077;28;20120;-85
2023/08/17 13:43:00;;;;;;;5.97;4.80;;;;;;;;;;5014960;28;20034;-86
2023/08/17 13:45:26;;;;;;;9.60;5.28;;;;;;;;;;5020877;28;20117;-85
2023/08/17 13:47:51;;;;;;;7.57;5.30;;;;;;;;;;5006392;28;20104;-86
2023/08/17 13:50:18;;;;;;;8.05;5.32;;;;;;;;;;5012177;28;20042;-86
2023/08/17 13:52:44;;;;;;;7.72;5.22;;;;;;;;;;5028744;28;20507;-85
2023/08/17 13:55:10;;;;;;;6.05;5.00;;;;;;;;;;5020639;28;20040;-85
2023/08/17 13:57:35;;;;;;;8.07;4.93;;;;;;;;;;5021297;28;20029;-85
2023/08/17 14:00:01;;;;;;;5.70;4.93;;;;;;;;;;5017937;28;20396;-86
2023/08/17 14:02:26;;;;;;;6.88;5.07;;;;;;;;;;5015192;28;20068;-85
2023/08/17 14:04:52;;;;;;;7.85;5.22;;;;;;;;;;5014935;28;20033;-86
2023/08/17 14:07:17;;;;;;;8.70;5.35;;;;;;;;;;5021546;28;20401;-86
2023/08/17 14:09:43;;;;;;;9.68;5.50;;;;;;;;;;5012223;28;20033;-86
2023/08/17 14:12:08;;;;;;;6.40;5.50;;;;;;;;;;5020345;28;20037;-87
2023/08/17 14:14:34;;;;;;;7.72;5.38;;;;;;;;;;5018617;28;20071;-87
2023/08/17 14:17:00;;;;;;;7.43;4.95;;;;;;;;;;5009423;28;20034;-86
2023/08/17 14:19:26;;;;;;;7.90;5.40;;;;;;;;;;5013722;28;20061;-87
2023/08/17 14:21:52;;;;;;;6.22;5.28;;;;;;;;;;4994000;28;20085;-87
2023/08/17 14:24:17;;;;;;;6.32;4.88;;;;;;;;;;5020825;28;20029;-87
2023/08/17 14:26:43;;;;;;;5.60;5.00;;;;;;;;;;5015074;28;20037;-86
2023/08/17 14:29:08;;;;;;;7.43;4.88;;;;;;;;;;5011509;28;20488;-86
2023/08/17 14:31:35;;;;;;;7.28;5.00;;;;;;;;;;5016839;28;20045;-87
2023/08/17 14:34:00;;;;;;;7.15;4.72;;;;;;;;;;5022207;28;20092;-86
2023/08/17 14:36:26;;;;;;;5.55;4.68;;;;;;;;;;5018796;28;20033;-85